createdAt,value
2017-09-28T00:01:18.602Z,51.50
2017-09-28T00:03:46.143Z,51.20
2017-09-28T00:06:13.665Z,51.40
2017-09-28T00:08:41.975Z,51.40
2017-09-28T00:11:09.495Z,51.40
2017-09-28T00:13:36.991Z,51.40
2017-09-28T00:16:04.610Z,51.40
2017-09-28T00:18:32.283Z,51.30
2017-09-28T00:20:59.788Z,51.40
2017-09-28T00:23:27.286Z,51.40
2017-09-28T00:25:54.792Z,51.40
2017-09-28T00:28:22.355Z,51.30
2017-09-28T00:30:49.854Z,51.30
2017-09-28T00:33:17.403Z,51.30
2017-09-28T00:35:44.925Z,51.30
2017-09-28T00:38:12.414Z,51.20
2017-09-28T00:40:40.684Z,51.30
2017-09-28T00:43:08.192Z,51.30
2017-09-28T00:45:35.687Z,51.30
2017-09-28T00:48:03.180Z,51.40
2017-09-28T00:50:30.704Z,51.20
2017-09-28T00:52:58.970Z,51.30
2017-09-28T00:55:27.260Z,51.40
2017-09-28T00:57:54.848Z,51.30
2017-09-28T01:00:22.347Z,51.30
2017-09-28T01:02:49.841Z,51.30
2017-09-28T01:05:17.336Z,51.30
2017-09-28T01:07:44.827Z,51.20
2017-09-28T01:10:12.331Z,51.20
2017-09-28T01:12:39.822Z,51.30
2017-09-28T01:15:08.204Z,51.80
2017-09-28T01:17:35.890Z,51.30
2017-09-28T01:20:03.559Z,51.20
2017-09-28T01:22:31.087Z,51.20
2017-09-28T01:24:59.351Z,51.20
2017-09-28T01:27:27.631Z,51.20
2017-09-28T01:29:55.895Z,51.20
2017-09-28T01:32:24.164Z,51.30
2017-09-28T01:34:52.562Z,51.20
2017-09-28T01:37:20.060Z,51.20
2017-09-28T01:39:47.555Z,51.20
2017-09-28T01:42:15.950Z,51.20
2017-09-28T01:44:43.464Z,51.20
2017-09-28T01:47:11.727Z,51.10
2017-09-28T01:49:39.248Z,51.10
2017-09-28T01:52:06.759Z,51.10
2017-09-28T01:54:35.044Z,51.20
2017-09-28T01:57:02.551Z,51.30
2017-09-28T01:59:30.084Z,51.20
2017-09-28T02:01:57.640Z,51.20
2017-09-28T02:04:25.131Z,51.20
2017-09-28T02:06:52.742Z,51.30
2017-09-28T02:09:20.244Z,51.20
2017-09-28T02:11:47.860Z,51.30
2017-09-28T02:14:15.367Z,51.20
2017-09-28T02:16:42.965Z,51.30
2017-09-28T02:19:10.623Z,51.20
2017-09-28T02:21:38.147Z,51.30
2017-09-28T02:24:06.560Z,51.70
2017-09-28T02:26:34.087Z,51.10
2017-09-28T02:29:02.363Z,51.10
2017-09-28T02:31:29.890Z,51.10
2017-09-28T02:33:57.479Z,51.20
2017-09-28T02:36:25.767Z,51.10
2017-09-28T02:38:53.331Z,51.20
2017-09-28T02:41:21.010Z,51.10
2017-09-28T02:43:48.514Z,51.10
2017-09-28T02:46:16.779Z,51.20
2017-09-28T02:48:45.051Z,51.70
2017-09-28T02:51:13.474Z,50.70
2017-09-28T02:53:41.136Z,51.10
2017-09-28T02:56:08.636Z,51.20
2017-09-28T02:58:36.159Z,51.10
2017-09-28T03:01:03.656Z,51.20
2017-09-28T03:03:31.204Z,51.10
2017-09-28T03:05:59.477Z,51.30
2017-09-28T03:08:26.966Z,51.10
2017-09-28T03:10:54.531Z,51.00
2017-09-28T03:13:22.131Z,51.70
2017-09-28T03:15:49.629Z,51.70
2017-09-28T03:18:17.122Z,51.20
2017-09-28T03:20:44.643Z,51.10
2017-09-28T03:23:12.407Z,51.10
2017-09-28T03:25:40.067Z,51.10
2017-09-28T03:28:07.555Z,51.10
2017-09-28T03:30:35.183Z,51.10
2017-09-28T03:33:02.835Z,51.00
2017-09-28T03:35:30.359Z,51.00
2017-09-28T03:37:58.767Z,51.10
2017-09-28T03:40:26.300Z,51.10
2017-09-28T03:42:54.571Z,51.10
2017-09-28T03:45:22.839Z,51.10
2017-09-28T03:47:51.101Z,51.10
2017-09-28T03:50:18.734Z,51.00
2017-09-28T03:52:46.232Z,51.00
2017-09-28T03:55:14.499Z,51.20
2017-09-28T03:57:42.783Z,51.40
2017-09-28T04:00:11.054Z,51.10
2017-09-28T04:02:39.330Z,51.20
2017-09-28T04:05:07.595Z,51.20
2017-09-28T04:07:36.024Z,51.20
2017-09-28T04:10:03.657Z,51.10
2017-09-28T04:12:31.187Z,51.10
2017-09-28T04:14:58.705Z,51.80
2017-09-28T04:17:26.248Z,51.20
2017-09-28T04:19:53.759Z,51.10
2017-09-28T04:22:22.154Z,51.20
2017-09-28T04:24:49.806Z,51.20
2017-09-28T04:27:17.481Z,51.20
2017-09-28T04:29:45.144Z,51.20
2017-09-28T04:32:12.990Z,51.20
2017-09-28T04:34:40.503Z,51.20
2017-09-28T04:37:08.115Z,51.10
2017-09-28T04:39:35.648Z,51.10
2017-09-28T04:42:03.916Z,51.20
2017-09-28T04:44:32.307Z,51.20
2017-09-28T04:46:59.802Z,51.10
2017-09-28T04:49:27.298Z,51.20
2017-09-28T04:51:54.863Z,51.10
2017-09-28T04:54:23.133Z,51.20
2017-09-28T04:56:50.627Z,51.20
2017-09-28T04:59:18.264Z,51.20
2017-09-28T05:01:45.782Z,51.20
2017-09-28T05:04:13.279Z,51.20
2017-09-28T05:06:40.873Z,51.20
2017-09-28T05:09:08.486Z,51.20
2017-09-28T05:11:36.023Z,51.10
2017-09-28T05:14:04.300Z,51.20
2017-09-28T05:16:32.580Z,51.20
2017-09-28T05:19:00.246Z,51.20
2017-09-28T05:21:27.827Z,51.20
2017-09-28T05:23:55.347Z,51.20
2017-09-28T05:26:22.847Z,51.20
2017-09-28T05:28:50.590Z,51.20
2017-09-28T05:31:18.164Z,51.20
2017-09-28T05:33:45.892Z,51.10
2017-09-28T05:36:13.399Z,51.20
2017-09-28T05:38:40.932Z,51.10
2017-09-28T05:41:08.471Z,51.10
2017-09-28T05:43:35.962Z,51.20
2017-09-28T05:46:04.227Z,51.20
2017-09-28T05:48:31.738Z,51.10
2017-09-28T05:50:59.246Z,51.20
2017-09-28T05:53:26.747Z,51.20
2017-09-28T05:55:54.293Z,51.20
2017-09-28T05:58:22.675Z,51.10
2017-09-28T06:00:50.194Z,51.10
2017-09-28T06:03:17.711Z,51.10
2017-09-28T06:05:45.231Z,51.20
2017-09-28T06:08:12.728Z,51.10
2017-09-28T06:10:40.247Z,51.10
2017-09-28T06:13:08.027Z,51.10
2017-09-28T06:15:35.547Z,51.70
2017-09-28T06:18:03.822Z,51.20
2017-09-28T06:20:32.107Z,51.20
2017-09-28T06:23:00.382Z,51.30
2017-09-28T06:25:27.907Z,51.30
2017-09-28T06:27:55.416Z,51.20
2017-09-28T06:30:23.064Z,51.20
2017-09-28T06:32:50.571Z,51.20
2017-09-28T06:35:18.083Z,51.30
2017-09-28T06:37:45.662Z,51.40
2017-09-28T06:40:13.158Z,51.30
2017-09-28T06:42:41.427Z,51.30
2017-09-28T06:45:09.691Z,51.30
2017-09-28T06:47:37.340Z,51.30
2017-09-28T06:50:04.834Z,51.30
2017-09-28T06:52:32.435Z,51.30
2017-09-28T06:54:59.940Z,51.30
2017-09-28T06:57:27.464Z,51.40
2017-09-28T06:59:55.074Z,51.40
2017-09-28T07:02:22.599Z,51.30
2017-09-28T07:04:50.859Z,51.40
2017-09-28T07:07:19.142Z,51.90
2017-09-28T07:09:47.399Z,51.30
2017-09-28T07:12:14.910Z,51.20
2017-09-28T07:14:42.470Z,51.30
2017-09-28T07:17:09.995Z,51.40
2017-09-28T07:19:38.258Z,51.40
2017-09-28T07:22:06.655Z,51.30
2017-09-28T07:24:34.147Z,51.30
2017-09-28T07:27:01.674Z,51.30
2017-09-28T07:29:29.167Z,51.30
2017-09-28T07:31:56.880Z,51.30
2017-09-28T07:34:24.397Z,51.40
2017-09-28T07:36:52.679Z,51.10
2017-09-28T07:39:20.944Z,51.40
2017-09-28T07:41:49.227Z,51.40
2017-09-28T07:44:17.631Z,51.40
2017-09-28T07:46:45.292Z,51.40
2017-09-28T07:49:12.823Z,51.40
2017-09-28T07:51:41.104Z,51.50
2017-09-28T07:54:09.491Z,51.50
2017-09-28T07:56:37.257Z,51.50
2017-09-28T07:59:04.760Z,51.40
2017-09-28T08:01:33.283Z,51.40
2017-09-28T08:04:00.953Z,51.50
2017-09-28T08:06:28.603Z,51.40
2017-09-28T08:08:56.103Z,51.40
2017-09-28T08:11:23.600Z,51.40
2017-09-28T08:13:51.111Z,51.40
2017-09-28T08:16:18.639Z,51.30
2017-09-28T08:18:46.144Z,51.30
2017-09-28T08:21:14.408Z,51.40
2017-09-28T08:23:41.916Z,51.40
2017-09-28T08:26:09.416Z,51.40
2017-09-28T08:28:36.930Z,51.40
2017-09-28T08:31:04.431Z,51.30
2017-09-28T08:33:31.926Z,51.40
2017-09-28T08:35:59.419Z,51.30
2017-09-28T08:38:26.916Z,51.30
2017-09-28T08:40:54.602Z,51.30
2017-09-28T08:43:22.106Z,51.40
2017-09-28T08:45:49.598Z,51.40
2017-09-28T08:48:17.157Z,51.40
2017-09-28T08:50:45.635Z,51.30
2017-09-28T08:53:13.291Z,51.90
2017-09-28T08:55:40.915Z,51.40
2017-09-28T08:58:09.940Z,51.40
2017-09-28T09:00:37.514Z,51.40
2017-09-28T09:03:05.040Z,51.40
2017-09-28T09:05:33.299Z,51.40
2017-09-28T09:08:01.702Z,52.00
2017-09-28T09:10:29.200Z,51.40
2017-09-28T09:12:56.813Z,51.50
2017-09-28T09:15:24.470Z,51.40
2017-09-28T09:17:51.995Z,51.50
2017-09-28T09:20:20.262Z,51.20
2017-09-28T09:22:48.591Z,51.50
2017-09-28T09:25:16.148Z,51.50
2017-09-28T09:27:43.662Z,51.40
2017-09-28T09:30:11.171Z,51.40
2017-09-28T09:32:38.688Z,51.50
2017-09-28T09:35:06.188Z,51.50
2017-09-28T09:37:33.711Z,51.60
2017-09-28T09:40:01.288Z,51.40
2017-09-28T09:42:28.924Z,51.50
2017-09-28T09:44:56.425Z,51.50
2017-09-28T09:47:23.967Z,51.40
2017-09-28T09:49:51.475Z,51.50
2017-09-28T09:52:19.009Z,51.50
2017-09-28T09:54:46.816Z,51.50
2017-09-28T09:57:14.347Z,51.50
2017-09-28T09:59:42.634Z,51.50
2017-09-28T10:02:10.248Z,51.50
2017-09-28T10:04:37.751Z,51.50
2017-09-28T10:07:10.732Z,51.50
2017-09-28T10:09:41.848Z,51.40
2017-09-28T10:12:14.631Z,51.50
2017-09-28T10:14:45.806Z,51.50
2017-09-28T10:17:13.324Z,51.50
2017-09-28T10:19:40.822Z,51.50
2017-09-28T10:22:08.339Z,51.60
2017-09-28T10:24:36.613Z,51.50
2017-09-28T10:27:05.015Z,51.60
2017-09-28T10:29:32.528Z,51.50
2017-09-28T10:32:00.025Z,51.50
2017-09-28T10:34:28.620Z,51.60
2017-09-28T10:36:56.135Z,51.60
2017-09-28T10:39:24.403Z,51.60
2017-09-28T10:41:52.680Z,51.60
2017-09-28T10:44:20.175Z,51.50
2017-09-28T10:46:47.671Z,51.60
2017-09-28T10:49:15.175Z,51.50
2017-09-28T10:51:42.818Z,51.50
2017-09-28T10:54:10.475Z,51.60
2017-09-28T10:56:38.152Z,51.60
2017-09-28T10:59:05.651Z,51.60
2017-09-28T11:01:33.152Z,51.60
2017-09-28T11:04:00.719Z,51.60
2017-09-28T11:06:28.211Z,51.60
2017-09-28T11:08:55.706Z,51.70
2017-09-28T11:11:23.219Z,51.70
2017-09-28T11:13:50.763Z,51.60
2017-09-28T11:16:18.255Z,51.60
2017-09-28T11:18:46.555Z,51.60
2017-09-28T11:21:14.123Z,51.60
2017-09-28T11:23:41.644Z,51.60
2017-09-28T11:26:09.911Z,51.70
2017-09-28T11:28:38.196Z,51.60
2017-09-28T11:31:06.464Z,51.60
2017-09-28T11:33:34.747Z,51.60
2017-09-28T11:36:02.334Z,51.60
2017-09-28T11:38:29.847Z,51.60
2017-09-28T11:40:58.247Z,51.60
2017-09-28T11:43:25.759Z,51.60
2017-09-28T11:45:53.372Z,51.60
2017-09-28T11:48:21.019Z,51.50
2017-09-28T11:50:48.523Z,51.60
2017-09-28T11:53:16.054Z,51.60
2017-09-28T11:55:43.599Z,51.60
2017-09-28T11:58:11.119Z,51.60
2017-09-28T12:00:39.404Z,51.60
2017-09-28T12:03:06.969Z,51.60
2017-09-28T12:05:34.476Z,51.50
2017-09-28T12:08:01.995Z,51.60
2017-09-28T12:10:29.549Z,51.60
2017-09-28T12:12:57.302Z,51.60
2017-09-28T12:15:24.840Z,51.60
2017-09-28T12:17:52.351Z,51.60
2017-09-28T12:20:19.851Z,51.60
2017-09-28T12:22:47.373Z,51.60
2017-09-28T12:25:14.878Z,51.70
2017-09-28T12:27:42.383Z,51.60
2017-09-28T12:30:10.659Z,51.60
2017-09-28T12:32:38.164Z,51.60
2017-09-28T12:35:05.678Z,51.70
2017-09-28T12:37:33.179Z,51.70
2017-09-28T12:40:00.679Z,51.70
2017-09-28T12:42:28.256Z,51.70
2017-09-28T12:44:55.754Z,51.70
2017-09-28T12:47:23.376Z,51.70
2017-09-28T12:49:50.896Z,51.70
2017-09-28T12:52:18.391Z,51.60
2017-09-28T12:54:45.899Z,51.70
2017-09-28T12:57:13.535Z,51.70
2017-09-28T12:59:41.083Z,51.70
2017-09-28T13:02:08.603Z,51.70
2017-09-28T13:04:36.099Z,51.60
2017-09-28T13:07:03.596Z,51.70
2017-09-28T13:09:31.183Z,51.60
2017-09-28T13:11:58.774Z,52.20
2017-09-28T13:14:26.502Z,51.60
2017-09-28T13:16:54.063Z,51.70
2017-09-28T13:19:21.564Z,51.70
2017-09-28T13:21:49.079Z,51.70
2017-09-28T13:24:16.639Z,51.70
2017-09-28T13:26:44.139Z,51.70
2017-09-28T13:29:11.669Z,51.60
2017-09-28T13:31:39.188Z,51.70
2017-09-28T13:34:06.711Z,51.70
2017-09-28T13:36:34.323Z,51.70
2017-09-28T13:39:01.840Z,52.10
2017-09-28T13:41:29.631Z,51.70
2017-09-28T13:43:57.160Z,51.60
2017-09-28T13:46:25.421Z,51.70
2017-09-28T13:48:53.707Z,52.30
2017-09-28T13:51:21.979Z,51.70
2017-09-28T13:53:50.268Z,51.70
2017-09-28T13:56:17.815Z,51.70
2017-09-28T13:58:45.482Z,51.60
2017-09-28T14:01:12.997Z,51.70
2017-09-28T14:03:40.528Z,51.70
2017-09-28T14:06:08.023Z,51.80
2017-09-28T14:08:35.714Z,51.80
2017-09-28T14:11:03.393Z,51.70
2017-09-28T14:13:30.987Z,51.70
2017-09-28T14:15:59.626Z,51.70
2017-09-28T14:18:27.220Z,51.70
2017-09-28T14:20:54.728Z,51.60
2017-09-28T14:23:22.314Z,51.70
2017-09-28T14:25:49.810Z,51.70
2017-09-28T14:28:18.083Z,51.80
2017-09-28T14:30:46.351Z,51.80
2017-09-28T14:33:14.767Z,51.80
2017-09-28T14:35:42.431Z,51.70
2017-09-28T14:38:09.931Z,51.70
2017-09-28T14:40:37.547Z,51.80
2017-09-28T14:43:05.181Z,51.80
2017-09-28T14:45:32.853Z,51.80
2017-09-28T14:48:00.363Z,51.80
2017-09-28T14:50:28.644Z,51.80
2017-09-28T14:52:56.919Z,51.70
2017-09-28T14:55:25.188Z,51.70
2017-09-28T14:57:53.460Z,51.70
2017-09-28T15:00:21.723Z,51.80
2017-09-28T15:02:49.351Z,51.80
2017-09-28T15:05:16.861Z,51.70
2017-09-28T15:07:45.126Z,51.70
2017-09-28T15:10:13.387Z,51.90
2017-09-28T15:12:40.888Z,51.80
2017-09-28T15:15:08.395Z,51.80
2017-09-28T15:17:35.899Z,51.80
2017-09-28T15:20:03.403Z,51.70
2017-09-28T15:22:30.911Z,51.70
2017-09-28T15:24:58.407Z,51.70
2017-09-28T15:27:25.918Z,51.70
2017-09-28T15:29:53.411Z,51.70
2017-09-28T15:32:21.039Z,51.70
2017-09-28T15:34:48.552Z,51.80
2017-09-28T15:37:16.819Z,51.80
2017-09-28T15:39:45.082Z,51.80
2017-09-28T15:42:12.606Z,51.80
2017-09-28T15:44:40.131Z,51.90
2017-09-28T15:47:07.711Z,51.80
2017-09-28T15:49:35.935Z,51.80
2017-09-28T15:52:04.347Z,51.80
2017-09-28T15:54:31.878Z,51.80
2017-09-28T15:56:59.405Z,51.70
2017-09-28T15:59:26.923Z,51.70
2017-09-28T16:01:54.417Z,51.70
2017-09-28T16:04:22.023Z,51.80
2017-09-28T16:06:49.538Z,52.30
2017-09-28T16:09:17.825Z,51.80
2017-09-28T16:11:46.092Z,51.70
2017-09-28T16:14:14.383Z,51.80
2017-09-28T16:16:41.894Z,51.70
2017-09-28T16:19:09.427Z,51.80
2017-09-28T16:21:36.928Z,51.80
2017-09-28T16:24:05.217Z,51.90
2017-09-28T16:26:32.711Z,51.80
2017-09-28T16:29:00.246Z,51.80
2017-09-28T16:31:27.765Z,51.80
2017-09-28T16:33:56.069Z,51.80
2017-09-28T16:36:23.603Z,51.80
2017-09-28T16:38:51.296Z,51.80
2017-09-28T16:41:18.971Z,51.70
2017-09-28T16:43:46.488Z,51.80
2017-09-28T16:46:14.043Z,51.80
2017-09-28T16:48:41.544Z,51.80
2017-09-28T16:51:09.171Z,51.90
2017-09-28T16:53:36.663Z,51.80
2017-09-28T16:56:04.151Z,51.80
2017-09-28T16:58:32.424Z,51.80
2017-09-28T17:01:00.816Z,51.90
2017-09-28T17:03:28.334Z,51.80
2017-09-28T17:05:55.955Z,51.80
2017-09-28T17:08:23.451Z,51.80
2017-09-28T17:10:50.946Z,51.80
2017-09-28T17:13:18.527Z,52.30
2017-09-28T17:15:46.030Z,51.70
2017-09-28T17:18:14.288Z,51.80
2017-09-28T17:20:41.783Z,51.80
2017-09-28T17:23:09.287Z,52.10
2017-09-28T17:25:38.303Z,51.80
2017-09-28T17:28:06.581Z,51.80
2017-09-28T17:30:34.971Z,51.70
2017-09-28T17:33:02.479Z,51.70
2017-09-28T17:35:29.977Z,51.80
2017-09-28T17:37:57.552Z,51.90
2017-09-28T17:40:25.046Z,51.80
2017-09-28T17:42:52.563Z,51.80
2017-09-28T17:45:20.059Z,51.80
2017-09-28T17:47:47.779Z,51.80
2017-09-28T17:50:15.279Z,51.80
2017-09-28T17:52:43.664Z,51.80
2017-09-28T17:55:11.350Z,51.90
2017-09-28T17:57:39.007Z,51.80
2017-09-28T18:00:06.525Z,51.80
2017-09-28T18:02:34.948Z,51.80
2017-09-28T18:05:02.475Z,51.80
2017-09-28T18:07:30.879Z,51.80
2017-09-28T18:09:58.583Z,51.70
2017-09-28T18:12:26.074Z,51.80
2017-09-28T18:14:54.355Z,51.80
2017-09-28T18:17:21.943Z,51.80
2017-09-28T18:19:49.586Z,51.80
2017-09-28T18:22:17.080Z,51.80
2017-09-28T18:24:44.590Z,51.70
2017-09-28T18:27:12.090Z,51.80
2017-09-28T18:29:39.635Z,51.70
2017-09-28T18:32:07.139Z,51.70
2017-09-28T18:34:35.415Z,51.70
2017-09-28T18:37:02.920Z,51.70
2017-09-28T18:39:30.468Z,51.70
2017-09-28T18:41:57.984Z,51.80
2017-09-28T18:44:25.532Z,51.80
2017-09-28T18:46:53.034Z,51.70
2017-09-28T18:49:20.540Z,51.70
2017-09-28T18:51:48.803Z,51.60
2017-09-28T18:54:17.115Z,51.70
2017-09-28T18:56:44.616Z,51.60
2017-09-28T18:59:12.144Z,51.70
2017-09-28T19:01:39.649Z,51.60
2017-09-28T19:04:07.906Z,51.60
2017-09-28T19:06:36.180Z,52.20
2017-09-28T19:09:04.452Z,51.60
2017-09-28T19:11:32.715Z,52.20
2017-09-28T19:14:00.214Z,51.60
2017-09-28T19:16:27.792Z,51.70
2017-09-28T19:18:55.282Z,51.70
2017-09-28T19:21:22.776Z,51.60
2017-09-28T19:23:50.287Z,51.70
2017-09-28T19:26:17.788Z,51.70
2017-09-28T19:28:45.291Z,51.70
2017-09-28T19:31:12.798Z,51.70
2017-09-28T19:33:40.370Z,51.70
2017-09-28T19:36:07.872Z,52.30
2017-09-28T19:38:36.304Z,51.60
2017-09-28T19:41:03.947Z,51.60
2017-09-28T19:43:31.628Z,51.60
2017-09-28T19:45:59.267Z,51.50
2017-09-28T19:48:26.947Z,51.60
2017-09-28T19:50:54.441Z,51.70
2017-09-28T19:53:22.715Z,51.70
2017-09-28T19:55:51.125Z,51.70
2017-09-28T19:58:18.831Z,51.70
2017-09-28T20:00:46.451Z,51.70
2017-09-28T20:03:14.161Z,51.80
2017-09-28T20:05:41.676Z,51.70
2017-09-28T20:08:09.177Z,51.70
2017-09-28T20:10:36.671Z,51.80
2017-09-28T20:13:04.337Z,51.80
2017-09-28T20:15:31.839Z,51.70
2017-09-28T20:17:59.335Z,51.70
2017-09-28T20:20:26.930Z,51.70
2017-09-28T20:22:54.427Z,51.80
2017-09-28T20:25:22.703Z,51.80
2017-09-28T20:27:50.979Z,51.70
2017-09-28T20:30:19.259Z,51.70
2017-09-28T20:32:46.856Z,51.70
2017-09-28T20:35:14.367Z,51.70
2017-09-28T20:37:42.635Z,51.70
2017-09-28T20:40:10.919Z,51.80
2017-09-28T20:42:38.410Z,51.80
2017-09-28T20:45:05.935Z,51.70
2017-09-28T20:47:33.436Z,51.70
2017-09-28T20:50:01.051Z,51.70
2017-09-28T20:52:28.554Z,51.70
2017-09-28T20:54:56.176Z,51.70
2017-09-28T20:57:23.671Z,51.80
2017-09-28T20:59:51.167Z,51.70
2017-09-28T21:02:18.934Z,51.60
2017-09-28T21:04:46.556Z,51.50
2017-09-28T21:07:14.262Z,51.70
2017-09-28T21:09:41.755Z,51.60
2017-09-28T21:12:09.275Z,51.70
2017-09-28T21:14:36.832Z,51.60
2017-09-28T21:17:04.331Z,51.60
2017-09-28T21:19:32.730Z,51.70
2017-09-28T21:22:00.413Z,51.70
2017-09-28T21:24:28.088Z,51.60
2017-09-28T21:26:55.587Z,51.60
2017-09-28T21:29:23.087Z,51.70
2017-09-28T21:31:50.632Z,51.70
2017-09-28T21:34:18.131Z,51.60
2017-09-28T21:36:45.755Z,51.60
2017-09-28T21:39:13.251Z,51.70
2017-09-28T21:41:40.872Z,51.70
2017-09-28T21:44:08.371Z,51.60
2017-09-28T21:46:35.868Z,51.60
2017-09-28T21:49:03.442Z,51.70
2017-09-28T21:51:31.084Z,51.60
2017-09-28T21:53:58.592Z,51.60
2017-09-28T21:56:26.106Z,51.60
2017-09-28T21:58:53.846Z,51.60
2017-09-28T22:01:21.535Z,51.60
2017-09-28T22:03:49.046Z,51.60
2017-09-28T22:06:17.326Z,51.70
2017-09-28T22:08:44.933Z,51.60
2017-09-28T22:11:12.440Z,51.60
2017-09-28T22:13:40.220Z,51.50
2017-09-28T22:16:07.735Z,51.60
2017-09-28T22:18:36.156Z,51.60
2017-09-28T22:21:03.652Z,51.60
2017-09-28T22:23:31.170Z,51.50
2017-09-28T22:25:58.668Z,51.60
2017-09-28T22:28:26.195Z,51.60
2017-09-28T22:30:53.703Z,51.50
2017-09-28T22:33:21.979Z,51.50
2017-09-28T22:35:49.543Z,51.50
2017-09-28T22:38:17.048Z,51.50
2017-09-28T22:40:44.571Z,51.50
2017-09-28T22:43:12.138Z,51.60
2017-09-28T22:45:39.664Z,51.60
2017-09-28T22:48:07.168Z,51.50
2017-09-28T22:50:34.725Z,51.40
2017-09-28T22:53:02.228Z,51.50
2017-09-28T22:55:29.736Z,51.50
2017-09-28T22:57:57.228Z,51.40
2017-09-28T23:00:24.908Z,51.50
2017-09-28T23:02:52.530Z,51.50
2017-09-28T23:05:20.031Z,51.50
2017-09-28T23:07:47.691Z,51.50
2017-09-28T23:10:15.192Z,51.50
2017-09-28T23:12:43.451Z,51.50
2017-09-28T23:15:11.064Z,51.50
2017-09-28T23:17:38.743Z,51.50
2017-09-28T23:20:06.234Z,51.50
2017-09-28T23:22:33.743Z,51.50
2017-09-28T23:25:01.290Z,51.60
2017-09-28T23:27:29.147Z,51.50
2017-09-28T23:29:56.659Z,51.40
2017-09-28T23:32:24.173Z,51.40
2017-09-28T23:34:51.675Z,51.50
2017-09-28T23:37:19.196Z,51.50
2017-09-28T23:39:46.691Z,51.50
2017-09-28T23:42:14.955Z,51.50
2017-09-28T23:44:42.463Z,51.50
2017-09-28T23:47:10.012Z,51.40
2017-09-28T23:49:37.688Z,51.40
2017-09-28T23:52:05.188Z,51.40
2017-09-28T23:54:33.447Z,51.50
2017-09-28T23:57:00.962Z,51.50
2017-09-28T23:59:28.519Z,51.60
